Time,TemperatureF,DewpointF,PressureIn,WindDirection,WindDirectionDegrees,WindSpeedMPH,WindSpeedGustMPH,Humidity,HourlyPrecipIn,Conditions,Clouds,dailyrainin,SoftwareType,DateUTC
2013-04-01 00:06:00,46.6,45.0,29.60,SE,132,0.0,2.0,93,0.00,,,0.00,weatherlink.com 1.10,2013-04-01 04:06:00,
2013-04-01 00:21:00,46.9,45.0,29.59,SSW,201,1.0,2.0,93,0.00,,,0.00,weatherlink.com 1.10,2013-04-01 04:21:00,
2013-04-01 00:36:00,46.9,45.0,29.59,ESE,109,0.0,6.0,93,0.00,,,0.00,weatherlink.com 1.10,2013-04-01 04:36:00,
2013-04-01 00:51:00,47.6,45.0,29.59,ENE,78,0.0,3.0,91,0.00,,,0.00,weatherlink.com 1.10,2013-04-01 04:51:00,
2013-04-01 01:06:00,48.0,45.0,29.59,East,79,0.0,2.0,89,0.00,,,0.00,weatherlink.com 1.10,2013-04-01 05:06:00,
2013-04-01 01:21:00,47.9,45.0,29.59,NNW,339,2.0,5.0,89,0.00,,,0.00,weatherlink.com 1.10,2013-04-01 05:21:00,
2013-04-01 01:51:00,47.8,45.0,29.59,NE,41,2.0,7.0,88,0.00,,,0.00,weatherlink.com 1.10,2013-04-01 05:51:00,
2013-04-01 02:06:00,47.6,44.0,29.60,SE,144,1.0,3.0,87,0.00,,,0.00,weatherlink.com 1.10,2013-04-01 06:06:00,
2013-04-01 02:21:00,47.5,44.0,29.60,WNW,296,1.0,10.0,86,0.00,,,0.00,weatherlink.com 1.10,2013-04-01 06:21:00,
2013-04-01 02:51:00,47.4,43.0,29.61,WSW,257,2.0,7.0,86,0.00,,,0.00,weatherlink.com 1.10,2013-04-01 06:51:00,
2013-04-01 03:37:00,46.7,43.0,29.61,ESE,117,0.0,5.0,87,0.00,,,0.00,weatherlink.com 1.10,2013-04-01 07:37:00,
2013-04-01 04:06:00,46.3,43.0,29.61,NNE,20,2.0,4.0,88,0.00,,,0.00,weatherlink.com 1.10,2013-04-01 08:06:00,
2013-04-01 04:36:00,46.1,43.0,29.61,SSE,159,1.0,4.0,88,0.00,,,0.00,weatherlink.com 1.10,2013-04-01 08:36:00,
2013-04-01 04:51:00,45.6,43.0,29.62,SE,142,0.0,4.0,89,0.00,,,0.00,weatherlink.com 1.10,2013-04-01 08:51:00,
2013-04-01 05:06:00,45.8,43.0,29.62,SSE,159,4.0,4.0,89,0.00,,,0.00,weatherlink.com 1.10,2013-04-01 09:06:00,
2013-04-01 05:21:00,45.9,43.0,29.62,SSE,149,0.0,3.0,89,0.00,,,0.00,weatherlink.com 1.10,2013-04-01 09:21:00,
2013-04-01 05:36:00,46.0,43.0,29.62,SE,132,1.0,3.0,89,0.00,,,0.00,weatherlink.com 1.10,2013-04-01 09:36:00,
2013-04-01 05:51:00,46.5,43.0,29.62,North,356,2.0,4.0,88,0.00,,,0.00,weatherlink.com 1.10,2013-04-01 09:51:00,
2013-04-01 06:06:00,46.6,43.0,29.63,SSE,153,2.0,6.0,88,0.00,,,0.00,weatherlink.com 1.10,2013-04-01 10:06:00,
2013-04-01 06:21:00,46.4,43.0,29.63,ESE,114,0.0,5.0,88,0.00,,,0.00,weatherlink.com 1.10,2013-04-01 10:21:00,
2013-04-01 06:36:00,46.2,43.0,29.63,SSW,195,2.0,3.0,88,0.00,,,0.00,weatherlink.com 1.10,2013-04-01 10:36:00,
2013-04-01 06:51:00,46.1,43.0,29.62,ESE,115,0.0,4.0,88,0.00,,,0.00,weatherlink.com 1.10,2013-04-01 10:51:00,
2013-04-01 07:21:00,46.5,43.0,29.61,SW,219,1.0,4.0,87,0.00,,,0.00,weatherlink.com 1.10,2013-04-01 11:21:00,
2013-04-01 07:36:00,46.8,43.0,29.61,ENE,73,0.0,3.0,87,0.00,,,0.00,weatherlink.com 1.10,2013-04-01 11:36:00,
2013-04-01 07:51:00,48.1,44.0,29.62,SE,138,3.0,5.0,84,0.00,,,0.00,weatherlink.com 1.10,2013-04-01 11:51:00,
2013-04-01 08:06:00,48.8,44.0,29.62,SSE,147,1.0,5.0,82,0.00,,,0.00,weatherlink.com 1.10,2013-04-01 12:06:00,
2013-04-01 08:21:00,49.5,44.0,29.62,SE,129,2.0,5.0,80,0.00,,,0.00,weatherlink.com 1.10,2013-04-01 12:21:00,
2013-04-01 08:36:00,50.3,44.0,29.62,SE,144,3.0,7.0,79,0.00,,,0.00,weatherlink.com 1.10,2013-04-01 12:36:00,
2013-04-01 08:52:00,50.9,44.0,29.62,ESE,120,2.0,5.0,78,0.00,,,0.00,weatherlink.com 1.10,2013-04-01 12:52:00,
2013-04-01 09:06:00,51.3,44.0,29.61,SSE,147,5.0,8.0,77,0.00,,,0.00,weatherlink.com 1.10,2013-04-01 13:06:00,
2013-04-01 09:22:00,52.1,44.0,29.61,South,184,2.0,5.0,75,0.00,,,0.00,weatherlink.com 1.10,2013-04-01 13:22:00,
2013-04-01 09:37:00,52.2,44.0,29.61,SE,127,2.0,7.0,73,0.00,,,0.00,weatherlink.com 1.10,2013-04-01 13:37:00,
2013-04-01 09:52:00,52.9,44.0,29.61,WSW,241,4.0,6.0,72,0.00,,,0.00,weatherlink.com 1.10,2013-04-01 13:52:00,
2013-04-01 10:07:00,53.6,44.0,29.60,SW,236,2.0,7.0,71,0.00,,,0.00,weatherlink.com 1.10,2013-04-01 14:07:00,
2013-04-01 10:22:00,54.4,44.0,29.60,WSW,242,4.0,7.0,69,0.00,,,0.00,weatherlink.com 1.10,2013-04-01 14:22:00,
2013-04-01 10:37:00,54.4,44.0,29.60,SSE,150,4.0,9.0,67,0.00,,,0.00,weatherlink.com 1.10,2013-04-01 14:37:00,
2013-04-01 10:52:00,54.4,44.0,29.60,SSE,162,3.0,12.0,67,0.00,,,0.00,weatherlink.com 1.10,2013-04-01 14:52:00,
2013-04-01 11:07:00,57.6,44.0,29.60,SSE,163,4.0,12.0,60,0.00,,,0.00,weatherlink.com 1.10,2013-04-01 15:07:00,
2013-04-01 11:22:00,57.1,44.0,29.59,ESE,119,4.0,8.0,61,0.00,,,0.00,weatherlink.com 1.10,2013-04-01 15:22:00,
2013-04-01 11:37:00,57.3,43.0,29.59,SSE,157,2.0,11.0,60,0.00,,,0.00,weatherlink.com 1.10,2013-04-01 15:37:00,
2013-04-01 11:52:00,58.5,43.0,29.59,West,263,3.0,10.0,56,0.00,,,0.00,weatherlink.com 1.10,2013-04-01 15:52:00,
2013-04-01 12:07:00,62.1,43.0,29.58,SE,135,3.0,13.0,49,0.00,,,0.00,weatherlink.com 1.10,2013-04-01 16:07:00,
2013-04-01 12:22:00,60.7,42.0,29.58,SE,146,8.0,11.0,51,0.00,,,0.00,weatherlink.com 1.10,2013-04-01 16:22:00,
2013-04-01 12:37:00,61.1,42.0,29.57,WSW,246,3.0,13.0,49,0.00,,,0.00,weatherlink.com 1.10,2013-04-01 16:37:00,
2013-04-01 12:52:00,63.7,41.0,29.56,South,177,2.0,15.0,44,0.00,,,0.00,weatherlink.com 1.10,2013-04-01 16:52:00,
2013-04-01 13:07:00,62.4,39.0,29.56,SSE,153,3.0,16.0,43,0.00,,,0.00,weatherlink.com 1.10,2013-04-01 17:07:00,
2013-04-01 13:22:00,62.3,39.0,29.55,NW,309,2.0,16.0,43,0.00,,,0.00,weatherlink.com 1.10,2013-04-01 17:22:00,
2013-04-01 13:37:00,64.5,39.0,29.55,WSW,248,2.0,9.0,39,0.00,,,0.00,weatherlink.com 1.10,2013-04-01 17:37:00,
2013-04-01 13:52:00,64.1,37.0,29.54,ENE,60,1.0,14.0,37,0.00,,,0.00,weatherlink.com 1.10,2013-04-01 17:52:00,
2013-04-01 14:07:00,64.4,37.0,29.54,SE,124,5.0,10.0,37,0.00,,,0.00,weatherlink.com 1.10,2013-04-01 18:07:00,
2013-04-01 14:22:00,65.0,38.0,29.53,WNW,293,3.0,11.0,37,0.00,,,0.00,weatherlink.com 1.10,2013-04-01 18:22:00,
2013-04-01 14:37:00,62.3,39.0,29.54,NE,41,2.0,7.0,43,0.00,,,0.00,weatherlink.com 1.10,2013-04-01 18:37:00,
2013-04-01 14:52:00,62.5,40.0,29.54,NE,47,2.0,11.0,43,0.00,,,0.00,weatherlink.com 1.10,2013-04-01 18:52:00,
2013-04-01 15:07:00,63.2,38.0,29.54,SE,125,1.0,8.0,40,0.00,,,0.00,weatherlink.com 1.10,2013-04-01 19:07:00,
2013-04-01 15:22:00,61.9,38.0,29.54,South,172,4.0,10.0,41,0.00,,,0.00,weatherlink.com 1.10,2013-04-01 19:22:00,
2013-04-01 15:37:00,61.9,37.0,29.54,ENE,65,4.0,13.0,40,0.00,,,0.00,weatherlink.com 1.10,2013-04-01 19:37:00,
2013-04-01 15:52:00,60.5,36.0,29.55,ENE,77,5.0,11.0,41,0.00,,,0.00,weatherlink.com 1.10,2013-04-01 19:52:00,
2013-04-01 16:07:00,58.6,37.0,29.56,West,278,1.0,12.0,44,0.00,,,0.00,weatherlink.com 1.10,2013-04-01 20:07:00,
2013-04-01 16:22:00,56.1,37.0,29.58,SE,124,1.0,12.0,49,0.00,,,0.00,weatherlink.com 1.10,2013-04-01 20:22:00,
2013-04-01 16:37:00,54.6,36.0,29.59,ENE,65,2.0,18.0,50,0.00,,,0.00,weatherlink.com 1.10,2013-04-01 20:37:00,
2013-04-01 16:52:00,48.3,38.0,29.61,North,352,8.0,20.0,67,0.00,,,0.00,weatherlink.com 1.10,2013-04-01 20:52:00,
2013-04-01 17:07:00,46.1,38.0,29.63,NNW,342,5.0,10.0,73,0.00,,,0.00,weatherlink.com 1.10,2013-04-01 21:07:00,
2013-04-01 17:22:00,45.1,38.0,29.64,NNE,26,1.0,14.0,75,0.01,,,0.01,weatherlink.com 1.10,2013-04-01 21:22:00,
2013-04-01 17:37:00,45.2,37.0,29.64,West,266,1.0,11.0,73,0.02,,,0.02,weatherlink.com 1.10,2013-04-01 21:37:00,
2013-04-01 17:52:00,45.5,37.0,29.64,East,95,0.0,10.0,71,0.02,,,0.02,weatherlink.com 1.10,2013-04-01 21:52:00,
2013-04-01 18:07:00,46.0,36.0,29.64,NNW,329,2.0,7.0,68,0.02,,,0.02,weatherlink.com 1.10,2013-04-01 22:07:00,
2013-04-01 18:22:00,46.0,35.0,29.64,North,359,0.0,5.0,66,0.01,,,0.02,weatherlink.com 1.10,2013-04-01 22:22:00,
2013-04-01 18:37:00,46.1,35.0,29.64,NNW,329,1.0,3.0,65,0.00,,,0.02,weatherlink.com 1.10,2013-04-01 22:37:00,
2013-04-01 18:53:00,46.8,34.0,29.66,SSE,158,0.0,5.0,61,0.00,,,0.02,weatherlink.com 1.10,2013-04-01 22:53:00,
2013-04-01 19:08:00,46.6,33.0,29.66,ESE,119,0.0,4.0,60,0.00,,,0.02,weatherlink.com 1.10,2013-04-01 23:08:00,
2013-04-01 19:23:00,46.7,33.0,29.66,NNE,23,0.0,3.0,60,0.00,,,0.02,weatherlink.com 1.10,2013-04-01 23:23:00,
2013-04-01 19:38:00,46.6,34.0,29.67,NNE,23,0.0,3.0,61,0.00,,,0.02,weatherlink.com 1.10,2013-04-01 23:38:00,
2013-04-01 19:53:00,46.5,34.0,29.68,ESE,104,0.0,1.0,62,0.00,,,0.02,weatherlink.com 1.10,2013-04-01 23:53:00,
2013-04-01 20:08:00,46.6,33.0,29.69,ENE,57,1.0,2.0,60,0.00,,,0.02,weatherlink.com 1.10,2013-04-02 00:08:00,
2013-04-01 20:23:00,47.1,25.0,29.70,SE,144,1.0,8.0,43,0.00,,,0.02,weatherlink.com 1.10,2013-04-02 00:23:00,
2013-04-01 20:38:00,46.3,21.0,29.72,NNW,346,2.0,9.0,36,0.00,,,0.02,weatherlink.com 1.10,2013-04-02 00:38:00,
2013-04-01 20:53:00,44.8,20.0,29.73,NE,44,4.0,12.0,37,0.00,,,0.02,weatherlink.com 1.10,2013-04-02 00:53:00,
2013-04-01 21:08:00,43.9,19.0,29.75,North,352,5.0,10.0,37,0.00,,,0.02,weatherlink.com 1.10,2013-04-02 01:08:00,
2013-04-01 21:23:00,43.0,18.0,29.76,NE,37,2.0,10.0,36,0.00,,,0.02,weatherlink.com 1.10,2013-04-02 01:23:00,
2013-04-01 21:38:00,42.5,16.0,29.77,NW,321,2.0,14.0,35,0.00,,,0.02,weatherlink.com 1.10,2013-04-02 01:38:00,
2013-04-01 21:53:00,41.9,14.0,29.78,NNW,338,1.0,13.0,32,0.00,,,0.02,weatherlink.com 1.10,2013-04-02 01:53:00,
2013-04-01 22:08:00,41.3,13.0,29.79,ENE,65,1.0,11.0,32,0.00,,,0.02,weatherlink.com 1.10,2013-04-02 02:08:00,
2013-04-01 22:23:00,40.8,11.0,29.80,NW,312,1.0,13.0,30,0.00,,,0.02,weatherlink.com 1.10,2013-04-02 02:23:00,
2013-04-01 22:38:00,40.3,11.0,29.80,ESE,112,1.0,13.0,30,0.00,,,0.02,weatherlink.com 1.10,2013-04-02 02:38:00,
2013-04-01 22:53:00,40.0,11.0,29.80,SE,131,5.0,9.0,30,0.00,,,0.02,weatherlink.com 1.10,2013-04-02 02:53:00,
2013-04-01 23:08:00,39.6,11.0,29.81,WNW,292,4.0,7.0,31,0.00,,,0.02,weatherlink.com 1.10,2013-04-02 03:08:00,
2013-04-01 23:23:00,39.2,11.0,29.81,NW,321,8.0,11.0,31,0.00,,,0.02,weatherlink.com 1.10,2013-04-02 03:23:00,
2013-04-01 23:38:00,38.9,11.0,29.82,NE,39,5.0,12.0,32,0.00,,,0.02,weatherlink.com 1.10,2013-04-02 03:38:00,
2013-04-01 23:53:00,38.7,12.0,29.82,South,186,1.0,9.0,33,0.00,,,0.02,weatherlink.com 1.10,2013-04-02 03:53:00,